Yoakum, Texas
Current Conditions -  °F | °C
As of 9:51 AM on Sunday 21 Dec 2014 (Local Time) from KVCT Reporting Station
Overcast Overcast  
Wind Chill: 56°   Ceiling: 1400
Heat Index: 56°   Visibility: 10mi
Dew Point: 51°   Wind: 9mph
Humidity: 84%   Direction: 50°NE
Pressure: 30.13"   Gusts: NA
Location:  29.29°N, 97.15°W
Report Text: KVCT 211551Z 05008KT 10SM FEW009 BKN014 OVC034 13/11 A3013 RMK AO2 SLP201 T01330106 $
Loading
Personal Weather Stations






























Interactive Weather Map New forecast layout! Learn more

10-Day Weather Forecast

Advertisements
Track Severe Weather on mobile